sensor_id;sensor_type;location;lat;lon;timestamp;temperature;humidity
48575;DHT22;34352;51.084;3.712;2022-09-30T00:01:42;8.60;48.90
48575;DHT22;34352;51.084;3.712;2022-09-30T00:04:16;8.50;51.90
48575;DHT22;34352;51.084;3.712;2022-09-30T00:06:42;8.50;55.50
48575;DHT22;34352;51.084;3.712;2022-09-30T00:09:07;8.50;56.90
48575;DHT22;34352;51.084;3.712;2022-09-30T00:11:35;8.60;56.70
48575;DHT22;34352;51.084;3.712;2022-09-30T00:14:03;8.60;58.10
48575;DHT22;34352;51.084;3.712;2022-09-30T00:16:31;8.60;58.90
48575;DHT22;34352;51.084;3.712;2022-09-30T00:18:58;8.60;59.10
48575;DHT22;34352;51.084;3.712;2022-09-30T00:21:25;8.70;57.30
48575;DHT22;34352;51.084;3.712;2022-09-30T00:23:51;8.70;56.30
48575;DHT22;34352;51.084;3.712;2022-09-30T00:26:19;8.70;54.60
48575;DHT22;34352;51.084;3.712;2022-09-30T00:28:49;8.60;53.30
48575;DHT22;34352;51.084;3.712;2022-09-30T00:31:16;8.50;53.20
48575;DHT22;34352;51.084;3.712;2022-09-30T00:33:43;8.60;52.80
48575;DHT22;34352;51.084;3.712;2022-09-30T00:36:09;8.40;52.40
48575;DHT22;34352;51.084;3.712;2022-09-30T00:38:35;9.40;53.10
48575;DHT22;34352;51.084;3.712;2022-09-30T00:41:02;8.40;52.60
48575;DHT22;34352;51.084;3.712;2022-09-30T00:43:42;8.40;52.90
48575;DHT22;34352;51.084;3.712;2022-09-30T00:48:57;8.40;53.10
48575;DHT22;34352;51.084;3.712;2022-09-30T00:51:41;8.30;53.50
48575;DHT22;34352;51.084;3.712;2022-09-30T00:54:18;8.50;53.40
48575;DHT22;34352;51.084;3.712;2022-09-30T00:56:51;8.40;52.60
48575;DHT22;34352;51.084;3.712;2022-09-30T01:01:49;8.20;51.60
48575;DHT22;34352;51.084;3.712;2022-09-30T01:04:22;8.20;51.30
48575;DHT22;34352;51.084;3.712;2022-09-30T01:06:49;8.40;52.00
48575;DHT22;34352;51.084;3.712;2022-09-30T01:09:15;8.30;52.20
48575;DHT22;34352;51.084;3.712;2022-09-30T01:11:41;8.10;52.80
48575;DHT22;34352;51.084;3.712;2022-09-30T01:14:13;8.20;54.80
48575;DHT22;34352;51.084;3.712;2022-09-30T01:17:04;8.20;54.70
48575;DHT22;34352;51.084;3.712;2022-09-30T01:35:54;7.90;53.40
48575;DHT22;34352;51.084;3.712;2022-09-30T01:38:47;7.90;54.00
48575;DHT22;34352;51.084;3.712;2022-09-30T01:44:18;7.90;58.50
48575;DHT22;34352;51.084;3.712;2022-09-30T01:55:24;8.20;61.80
48575;DHT22;34352;51.084;3.712;2022-09-30T01:57:56;8.60;61.80
48575;DHT22;34352;51.084;3.712;2022-09-30T02:00:23;8.30;60.80
48575;DHT22;34352;51.084;3.712;2022-09-30T02:02:56;8.30;60.60
48575;DHT22;34352;51.084;3.712;2022-09-30T02:06:12;8.30;61.10
48575;DHT22;34352;51.084;3.712;2022-09-30T02:10:59;8.30;61.30
48575;DHT22;34352;51.084;3.712;2022-09-30T02:13:40;8.20;61.00
48575;DHT22;34352;51.084;3.712;2022-09-30T02:16:11;8.20;60.60
48575;DHT22;34352;51.084;3.712;2022-09-30T02:18:41;8.10;60.00
48575;DHT22;34352;51.084;3.712;2022-09-30T02:21:10;8.10;59.40
48575;DHT22;34352;51.084;3.712;2022-09-30T02:23:43;8.00;59.20
48575;DHT22;34352;51.084;3.712;2022-09-30T02:26:23;8.10;61.50
48575;DHT22;34352;51.084;3.712;2022-09-30T02:29:04;8.20;63.50
48575;DHT22;34352;51.084;3.712;2022-09-30T02:31:34;8.10;64.00
48575;DHT22;34352;51.084;3.712;2022-09-30T02:34:07;8.20;64.40
48575;DHT22;34352;51.084;3.712;2022-09-30T02:36:48;8.40;64.00
48575;DHT22;34352;51.084;3.712;2022-09-30T02:39:39;8.10;64.10
48575;DHT22;34352;51.084;3.712;2022-09-30T02:42:14;8.10;64.10
48575;DHT22;34352;51.084;3.712;2022-09-30T02:44:46;8.10;63.60
48575;DHT22;34352;51.084;3.712;2022-09-30T02:49:55;8.10;62.30
48575;DHT22;34352;51.084;3.712;2022-09-30T02:52:34;8.00;62.20
48575;DHT22;34352;51.084;3.712;2022-09-30T02:55:28;8.20;63.90
48575;DHT22;34352;51.084;3.712;2022-09-30T02:58:10;8.20;63.60
48575;DHT22;34352;51.084;3.712;2022-09-30T03:00:37;8.30;65.20
48575;DHT22;34352;51.084;3.712;2022-09-30T03:03:08;8.40;65.50
48575;DHT22;34352;51.084;3.712;2022-09-30T03:05:35;8.30;64.40
48575;DHT22;34352;51.084;3.712;2022-09-30T03:08:01;8.20;64.10
48575;DHT22;34352;51.084;3.712;2022-09-30T03:10:28;9.20;65.30
48575;DHT22;34352;51.084;3.712;2022-09-30T03:15:45;8.00;64.20
48575;DHT22;34352;51.084;3.712;2022-09-30T03:18:29;7.90;63.20
48575;DHT22;34352;51.084;3.712;2022-09-30T03:27:31;7.70;62.60
48575;DHT22;34352;51.084;3.712;2022-09-30T03:30:04;7.70;64.00
48575;DHT22;34352;51.084;3.712;2022-09-30T03:38:00;7.60;63.30
48575;DHT22;34352;51.084;3.712;2022-09-30T03:43:15;7.60;62.30
48575;DHT22;34352;51.084;3.712;2022-09-30T03:48:24;7.50;62.90
48575;DHT22;34352;51.084;3.712;2022-09-30T03:50:52;7.50;66.40
48575;DHT22;34352;51.084;3.712;2022-09-30T03:53:18;7.60;67.30
48575;DHT22;34352;51.084;3.712;2022-09-30T03:55:46;8.30;68.10
48575;DHT22;34352;51.084;3.712;2022-09-30T03:58:13;7.70;67.60
48575;DHT22;34352;51.084;3.712;2022-09-30T04:00:44;7.70;67.20
48575;DHT22;34352;51.084;3.712;2022-09-30T04:03:11;8.60;67.70
48575;DHT22;34352;51.084;3.712;2022-09-30T04:05:37;7.80;67.70
48575;DHT22;34352;51.084;3.712;2022-09-30T04:08:03;7.70;66.50
48575;DHT22;34352;51.084;3.712;2022-09-30T04:10:28;7.80;65.30
48575;DHT22;34352;51.084;3.712;2022-09-30T04:12:54;7.70;64.80
48575;DHT22;34352;51.084;3.712;2022-09-30T04:15:20;7.70;64.70
48575;DHT22;34352;51.084;3.712;2022-09-30T04:17:45;7.80;65.30
48575;DHT22;34352;51.084;3.712;2022-09-30T04:20:11;8.00;64.10
48575;DHT22;34352;51.084;3.712;2022-09-30T04:22:37;7.70;65.20
48575;DHT22;34352;51.084;3.712;2022-09-30T04:25:03;7.70;65.40
48575;DHT22;34352;51.084;3.712;2022-09-30T04:27:28;7.60;67.20
48575;DHT22;34352;51.084;3.712;2022-09-30T04:29:55;7.60;67.60
48575;DHT22;34352;51.084;3.712;2022-09-30T04:32:23;7.90;68.00
48575;DHT22;34352;51.084;3.712;2022-09-30T04:34:50;7.50;67.70
48575;DHT22;34352;51.084;3.712;2022-09-30T04:37:17;7.50;67.50
48575;DHT22;34352;51.084;3.712;2022-09-30T04:39:43;8.00;68.80
48575;DHT22;34352;51.084;3.712;2022-09-30T04:42:08;7.60;67.80
48575;DHT22;34352;51.084;3.712;2022-09-30T04:44:34;8.20;68.70
48575;DHT22;34352;51.084;3.712;2022-09-30T04:47:00;8.50;69.70
48575;DHT22;34352;51.084;3.712;2022-09-30T04:49:25;7.60;70.50
48575;DHT22;34352;51.084;3.712;2022-09-30T04:51:51;7.60;71.20
48575;DHT22;34352;51.084;3.712;2022-09-30T04:54:17;7.70;71.90
48575;DHT22;34352;51.084;3.712;2022-09-30T04:56:44;7.80;71.80
48575;DHT22;34352;51.084;3.712;2022-09-30T04:59:10;7.80;72.00
48575;DHT22;34352;51.084;3.712;2022-09-30T05:01:36;7.80;72.70
48575;DHT22;34352;51.084;3.712;2022-09-30T05:04:03;7.90;72.70
48575;DHT22;34352;51.084;3.712;2022-09-30T05:06:29;7.90;71.60
48575;DHT22;34352;51.084;3.712;2022-09-30T05:09:02;7.90;71.40
48575;DHT22;34352;51.084;3.712;2022-09-30T05:11:27;7.90;72.00
48575;DHT22;34352;51.084;3.712;2022-09-30T05:13:54;7.80;72.00
48575;DHT22;34352;51.084;3.712;2022-09-30T05:16:20;7.80;72.00
48575;DHT22;34352;51.084;3.712;2022-09-30T05:18:48;7.80;72.10
48575;DHT22;34352;51.084;3.712;2022-09-30T05:21:17;7.70;71.10
48575;DHT22;34352;51.084;3.712;2022-09-30T05:23:52;7.70;70.30
48575;DHT22;34352;51.084;3.712;2022-09-30T05:26:18;7.70;70.30
48575;DHT22;34352;51.084;3.712;2022-09-30T05:28:44;8.60;70.70
48575;DHT22;34352;51.084;3.712;2022-09-30T05:31:10;7.70;71.00
48575;DHT22;34352;51.084;3.712;2022-09-30T05:33:37;9.10;71.70
48575;DHT22;34352;51.084;3.712;2022-09-30T05:36:09;7.90;71.20
48575;DHT22;34352;51.084;3.712;2022-09-30T05:38:36;8.00;71.80
48575;DHT22;34352;51.084;3.712;2022-09-30T05:41:06;8.10;71.70
48575;DHT22;34352;51.084;3.712;2022-09-30T05:43:33;8.20;72.20
48575;DHT22;34352;51.084;3.712;2022-09-30T05:45:58;8.30;72.00
48575;DHT22;34352;51.084;3.712;2022-09-30T05:48:24;8.40;72.00
48575;DHT22;34352;51.084;3.712;2022-09-30T05:50:57;8.30;72.10
48575;DHT22;34352;51.084;3.712;2022-09-30T05:53:26;8.30;72.40
48575;DHT22;34352;51.084;3.712;2022-09-30T05:55:52;8.30;72.40
48575;DHT22;34352;51.084;3.712;2022-09-30T05:58:18;8.40;72.40
48575;DHT22;34352;51.084;3.712;2022-09-30T06:00:46;8.30;71.70
48575;DHT22;34352;51.084;3.712;2022-09-30T06:03:12;8.20;71.50
48575;DHT22;34352;51.084;3.712;2022-09-30T06:05:38;8.30;72.50
48575;DHT22;34352;51.084;3.712;2022-09-30T06:08:04;8.30;71.90
48575;DHT22;34352;51.084;3.712;2022-09-30T06:10:32;8.30;72.40
48575;DHT22;34352;51.084;3.712;2022-09-30T06:12:59;8.40;73.80
48575;DHT22;34352;51.084;3.712;2022-09-30T06:15:25;8.40;73.20
48575;DHT22;34352;51.084;3.712;2022-09-30T06:17:53;8.40;73.90
48575;DHT22;34352;51.084;3.712;2022-09-30T06:20:19;8.40;74.20
48575;DHT22;34352;51.084;3.712;2022-09-30T06:22:44;8.50;74.00
48575;DHT22;34352;51.084;3.712;2022-09-30T06:25:10;8.60;73.90
48575;DHT22;34352;51.084;3.712;2022-09-30T06:27:40;8.60;73.60
48575;DHT22;34352;51.084;3.712;2022-09-30T06:30:09;8.50;74.60
48575;DHT22;34352;51.084;3.712;2022-09-30T06:32:35;8.70;74.70
48575;DHT22;34352;51.084;3.712;2022-09-30T06:35:02;9.40;74.90
48575;DHT22;34352;51.084;3.712;2022-09-30T06:37:28;8.80;73.20
48575;DHT22;34352;51.084;3.712;2022-09-30T06:39:54;8.80;72.30
48575;DHT22;34352;51.084;3.712;2022-09-30T06:42:20;8.80;73.70
48575;DHT22;34352;51.084;3.712;2022-09-30T06:44:49;8.70;74.40
48575;DHT22;34352;51.084;3.712;2022-09-30T06:47:16;8.80;75.90
48575;DHT22;34352;51.084;3.712;2022-09-30T06:49:42;9.00;75.30
48575;DHT22;34352;51.084;3.712;2022-09-30T06:52:11;9.30;75.00
48575;DHT22;34352;51.084;3.712;2022-09-30T06:54:38;9.10;75.50
48575;DHT22;34352;51.084;3.712;2022-09-30T06:57:07;10.00;75.90
48575;DHT22;34352;51.084;3.712;2022-09-30T06:59:32;9.70;77.90
48575;DHT22;34352;51.084;3.712;2022-09-30T07:01:58;11.20;82.00
48575;DHT22;34352;51.084;3.712;2022-09-30T07:04:24;12.00;83.30
48575;DHT22;34352;51.084;3.712;2022-09-30T07:06:49;13.10;79.40
48575;DHT22;34352;51.084;3.712;2022-09-30T07:09:15;14.20;65.20
48575;DHT22;34352;51.084;3.712;2022-09-30T07:11:42;15.40;36.60
48575;DHT22;34352;51.084;3.712;2022-09-30T07:14:08;16.30;1.00
48575;DHT22;34352;51.084;3.712;2022-09-30T07:16:34;17.10;1.00
48575;DHT22;34352;51.084;3.712;2022-09-30T07:19:01;17.70;1.00
48575;DHT22;34352;51.084;3.712;2022-09-30T07:21:27;18.30;99.90
48575;DHT22;34352;51.084;3.712;2022-09-30T07:23:55;19.10;99.90
48575;DHT22;34352;51.084;3.712;2022-09-30T07:26:23;19.40;99.90
48575;DHT22;34352;51.084;3.712;2022-09-30T07:28:50;19.60;99.90
48575;DHT22;34352;51.084;3.712;2022-09-30T07:31:21;20.70;99.90
48575;DHT22;34352;51.084;3.712;2022-09-30T07:33:48;20.90;99.90
48575;DHT22;34352;51.084;3.712;2022-09-30T07:36:20;21.40;99.90
48575;DHT22;34352;51.084;3.712;2022-09-30T07:38:51;21.50;99.90
48575;DHT22;34352;51.084;3.712;2022-09-30T07:41:20;22.00;1.00
48575;DHT22;34352;51.084;3.712;2022-09-30T07:43:47;22.30;1.00
48575;DHT22;34352;51.084;3.712;2022-09-30T07:46:16;22.40;1.00
48575;DHT22;34352;51.084;3.712;2022-09-30T07:48:45;22.50;1.00
48575;DHT22;34352;51.084;3.712;2022-09-30T07:51:27;22.30;1.00
48575;DHT22;34352;51.084;3.712;2022-09-30T07:53:58;22.00;1.00
48575;DHT22;34352;51.084;3.712;2022-09-30T07:56:25;21.50;1.00
48575;DHT22;34352;51.084;3.712;2022-09-30T07:58:59;21.50;1.00
48575;DHT22;34352;51.084;3.712;2022-09-30T08:01:27;21.50;1.00
48575;DHT22;34352;51.084;3.712;2022-09-30T08:03:55;21.80;1.00
48575;DHT22;34352;51.084;3.712;2022-09-30T08:06:23;21.60;1.00
48575;DHT22;34352;51.084;3.712;2022-09-30T08:08:52;22.00;1.00
48575;DHT22;34352;51.084;3.712;2022-09-30T08:11:21;22.20;1.00
48575;DHT22;34352;51.084;3.712;2022-09-30T08:13:55;22.80;1.00
48575;DHT22;34352;51.084;3.712;2022-09-30T08:16:23;23.10;1.00
48575;DHT22;34352;51.084;3.712;2022-09-30T08:18:56;23.20;1.00
48575;DHT22;34352;51.084;3.712;2022-09-30T08:21:23;23.80;1.00
48575;DHT22;34352;51.084;3.712;2022-09-30T08:23:49;23.90;1.00
48575;DHT22;34352;51.084;3.712;2022-09-30T08:26:16;24.10;1.00
48575;DHT22;34352;51.084;3.712;2022-09-30T08:28:48;24.00;1.00
48575;DHT22;34352;51.084;3.712;2022-09-30T08:31:16;24.30;1.00
48575;DHT22;34352;51.084;3.712;2022-09-30T08:33:43;24.90;1.00
48575;DHT22;34352;51.084;3.712;2022-09-30T08:36:25;25.30;1.00
48575;DHT22;34352;51.084;3.712;2022-09-30T08:38:52;24.80;1.00
48575;DHT22;34352;51.084;3.712;2022-09-30T08:41:48;24.50;1.00
48575;DHT22;34352;51.084;3.712;2022-09-30T08:49:53;25.50;1.00
48575;DHT22;34352;51.084;3.712;2022-09-30T08:52:41;25.20;1.00
48575;DHT22;34352;51.084;3.712;2022-09-30T08:58:30;25.30;1.00
48575;DHT22;34352;51.084;3.712;2022-09-30T09:01:05;25.20;1.00
48575;DHT22;34352;51.084;3.712;2022-09-30T09:03:34;25.80;1.00
48575;DHT22;34352;51.084;3.712;2022-09-30T09:06:28;26.00;1.00
48575;DHT22;34352;51.084;3.712;2022-09-30T09:17:38;25.80;1.00
48575;DHT22;34352;51.084;3.712;2022-09-30T09:20:17;26.60;1.00
48575;DHT22;34352;51.084;3.712;2022-09-30T09:22:47;26.60;1.00
48575;DHT22;34352;51.084;3.712;2022-09-30T09:25:25;26.70;1.00
48575;DHT22;34352;51.084;3.712;2022-09-30T09:30:56;26.50;1.00
48575;DHT22;34352;51.084;3.712;2022-09-30T09:33:27;26.80;1.00
48575;DHT22;34352;51.084;3.712;2022-09-30T09:38:23;27.20;1.00
48575;DHT22;34352;51.084;3.712;2022-09-30T09:41:00;27.40;1.00
48575;DHT22;34352;51.084;3.712;2022-09-30T09:44:22;27.90;1.00
48575;DHT22;34352;51.084;3.712;2022-09-30T09:46:49;28.40;1.00
48575;DHT22;34352;51.084;3.712;2022-09-30T09:49:36;29.10;1.00
48575;DHT22;34352;51.084;3.712;2022-09-30T09:54:43;28.90;1.00
48575;DHT22;34352;51.084;3.712;2022-09-30T09:57:15;28.20;1.00
48575;DHT22;34352;51.084;3.712;2022-09-30T10:05:45;27.20;1.00
48575;DHT22;34352;51.084;3.712;2022-09-30T10:08:22;26.00;1.00
48575;DHT22;34352;51.084;3.712;2022-09-30T10:10:54;26.00;1.00
48575;DHT22;34352;51.084;3.712;2022-09-30T10:13:26;26.10;1.00
48575;DHT22;34352;51.084;3.712;2022-09-30T10:15:56;26.30;1.00
48575;DHT22;34352;51.084;3.712;2022-09-30T10:18:35;26.50;1.00
48575;DHT22;34352;51.084;3.712;2022-09-30T10:21:05;26.40;1.00
48575;DHT22;34352;51.084;3.712;2022-09-30T10:23:36;26.80;1.00
48575;DHT22;34352;51.084;3.712;2022-09-30T10:31:20;27.20;1.00
48575;DHT22;34352;51.084;3.712;2022-09-30T10:33:56;27.00;1.00
48575;DHT22;34352;51.084;3.712;2022-09-30T10:36:31;27.10;1.00
48575;DHT22;34352;51.084;3.712;2022-09-30T10:39:05;26.80;1.00
48575;DHT22;34352;51.084;3.712;2022-09-30T10:41:33;26.70;1.00
48575;DHT22;34352;51.084;3.712;2022-09-30T10:44:01;27.10;1.00
48575;DHT22;34352;51.084;3.712;2022-09-30T10:46:37;27.30;1.00
48575;DHT22;34352;51.084;3.712;2022-09-30T10:51:59;28.20;1.00
48575;DHT22;34352;51.084;3.712;2022-09-30T10:54:34;27.80;1.00
48575;DHT22;34352;51.084;3.712;2022-09-30T10:57:01;27.20;1.00
48575;DHT22;34352;51.084;3.712;2022-09-30T10:59:37;26.70;1.00
48575;DHT22;34352;51.084;3.712;2022-09-30T11:04:52;26.70;1.00
48575;DHT22;34352;51.084;3.712;2022-09-30T11:07:38;27.20;1.00
48575;DHT22;34352;51.084;3.712;2022-09-30T11:16:04;25.70;1.00
48575;DHT22;34352;51.084;3.712;2022-09-30T11:24:27;22.60;1.00
48575;DHT22;34352;51.084;3.712;2022-09-30T11:34:55;22.60;1.00
48575;DHT22;34352;51.084;3.712;2022-09-30T11:48:23;25.90;1.00
48575;DHT22;34352;51.084;3.712;2022-09-30T11:51:19;24.50;1.00
48575;DHT22;34352;51.084;3.712;2022-09-30T11:56:43;22.40;1.00
48575;DHT22;34352;51.084;3.712;2022-09-30T11:59:44;21.90;1.00
48575;DHT22;34352;51.084;3.712;2022-09-30T12:02:24;21.30;1.00
48575;DHT22;34352;51.084;3.712;2022-09-30T12:04:55;21.10;1.00
48575;DHT22;34352;51.084;3.712;2022-09-30T12:10:13;22.70;1.00
48575;DHT22;34352;51.084;3.712;2022-09-30T12:12:41;23.70;1.00
48575;DHT22;34352;51.084;3.712;2022-09-30T12:15:15;24.20;1.00
48575;DHT22;34352;51.084;3.712;2022-09-30T12:17:47;24.20;1.00
48575;DHT22;34352;51.084;3.712;2022-09-30T12:22:41;24.10;1.00
48575;DHT22;34352;51.084;3.712;2022-09-30T12:25:31;24.10;1.00
48575;DHT22;34352;51.084;3.712;2022-09-30T12:28:23;23.80;1.00
48575;DHT22;34352;51.084;3.712;2022-09-30T12:42:47;23.30;1.00
48575;DHT22;34352;51.084;3.712;2022-09-30T12:47:48;24.20;1.00
48575;DHT22;34352;51.084;3.712;2022-09-30T12:50:39;24.20;1.00
48575;DHT22;34352;51.084;3.712;2022-09-30T12:53:17;23.70;1.00
48575;DHT22;34352;51.084;3.712;2022-09-30T12:55:43;23.60;1.00
48575;DHT22;34352;51.084;3.712;2022-09-30T12:58:21;23.40;1.00
48575;DHT22;34352;51.084;3.712;2022-09-30T13:01:07;23.40;1.00
48575;DHT22;34352;51.084;3.712;2022-09-30T13:03:52;23.30;1.00
48575;DHT22;34352;51.084;3.712;2022-09-30T13:09:19;23.00;1.00
48575;DHT22;34352;51.084;3.712;2022-09-30T13:14:42;21.80;1.00
48575;DHT22;34352;51.084;3.712;2022-09-30T13:19:46;21.90;1.00
48575;DHT22;34352;51.084;3.712;2022-09-30T13:27:52;22.40;1.00
48575;DHT22;34352;51.084;3.712;2022-09-30T13:40:52;21.40;1.00
48575;DHT22;34352;51.084;3.712;2022-09-30T13:43:25;20.90;1.00
48575;DHT22;34352;51.084;3.712;2022-09-30T13:45:55;20.90;1.00
48575;DHT22;34352;51.084;3.712;2022-09-30T13:48:49;21.30;1.00
48575;DHT22;34352;51.084;3.712;2022-09-30T13:51:20;21.60;1.00
48575;DHT22;34352;51.084;3.712;2022-09-30T13:53:52;21.60;1.00
48575;DHT22;34352;51.084;3.712;2022-09-30T13:56:31;21.20;1.00
48575;DHT22;34352;51.084;3.712;2022-09-30T14:02:21;21.30;1.00
48575;DHT22;34352;51.084;3.712;2022-09-30T14:05:14;21.30;1.00
48575;DHT22;34352;51.084;3.712;2022-09-30T14:08:16;21.00;1.00
48575;DHT22;34352;51.084;3.712;2022-09-30T14:21:56;19.50;1.00
48575;DHT22;34352;51.084;3.712;2022-09-30T14:24:27;19.50;1.00
48575;DHT22;34352;51.084;3.712;2022-09-30T14:34:59;19.60;1.00
48575;DHT22;34352;51.084;3.712;2022-09-30T14:37:40;20.00;1.00
48575;DHT22;34352;51.084;3.712;2022-09-30T14:40:13;20.10;1.00
48575;DHT22;34352;51.084;3.712;2022-09-30T14:42:41;20.20;1.00
48575;DHT22;34352;51.084;3.712;2022-09-30T14:45:32;20.70;1.00
48575;DHT22;34352;51.084;3.712;2022-09-30T14:48:05;19.70;1.00
48575;DHT22;34352;51.084;3.712;2022-09-30T14:53:38;19.70;1.00
48575;DHT22;34352;51.084;3.712;2022-09-30T14:56:18;19.50;1.00
48575;DHT22;34352;51.084;3.712;2022-09-30T14:58:48;19.70;1.00
48575;DHT22;34352;51.084;3.712;2022-09-30T15:01:18;19.40;1.00
48575;DHT22;34352;51.084;3.712;2022-09-30T15:03:59;19.00;1.00
48575;DHT22;34352;51.084;3.712;2022-09-30T15:06:28;18.80;1.00
48575;DHT22;34352;51.084;3.712;2022-09-30T15:09:06;18.80;1.00
48575;DHT22;34352;51.084;3.712;2022-09-30T15:11:33;18.70;1.00
48575;DHT22;34352;51.084;3.712;2022-09-30T15:14:05;18.50;1.00
48575;DHT22;34352;51.084;3.712;2022-09-30T15:16:32;18.40;1.00
48575;DHT22;34352;51.084;3.712;2022-09-30T15:18:59;18.50;1.00
48575;DHT22;34352;51.084;3.712;2022-09-30T15:21:26;18.50;1.00
48575;DHT22;34352;51.084;3.712;2022-09-30T15:23:55;18.50;1.00
48575;DHT22;34352;51.084;3.712;2022-09-30T15:26:23;18.40;1.00
48575;DHT22;34352;51.084;3.712;2022-09-30T15:28:49;18.40;1.00
48575;DHT22;34352;51.084;3.712;2022-09-30T15:31:29;18.40;1.00
48575;DHT22;34352;51.084;3.712;2022-09-30T15:34:06;18.20;1.00
48575;DHT22;34352;51.084;3.712;2022-09-30T15:36:37;18.10;1.00
48575;DHT22;34352;51.084;3.712;2022-09-30T15:39:04;18.00;1.00
48575;DHT22;34352;51.084;3.712;2022-09-30T15:41:37;17.90;1.00
48575;DHT22;34352;51.084;3.712;2022-09-30T15:44:14;18.00;1.00
48575;DHT22;34352;51.084;3.712;2022-09-30T15:46:59;18.00;1.00
48575;DHT22;34352;51.084;3.712;2022-09-30T15:52:26;17.70;1.00
48575;DHT22;34352;51.084;3.712;2022-09-30T15:54:54;17.80;1.00
48575;DHT22;34352;51.084;3.712;2022-09-30T15:57:45;17.80;1.00
48575;DHT22;34352;51.084;3.712;2022-09-30T16:00:33;17.80;1.00
48575;DHT22;34352;51.084;3.712;2022-09-30T16:03:23;17.70;1.00
48575;DHT22;34352;51.084;3.712;2022-09-30T16:05:49;17.60;1.00
48575;DHT22;34352;51.084;3.712;2022-09-30T16:08:26;17.60;1.00
48575;DHT22;34352;51.084;3.712;2022-09-30T16:10:55;17.60;1.00
48575;DHT22;34352;51.084;3.712;2022-09-30T16:13:27;17.60;1.00
48575;DHT22;34352;51.084;3.712;2022-09-30T16:15:55;17.50;1.00
48575;DHT22;34352;51.084;3.712;2022-09-30T16:18:27;17.40;1.00
48575;DHT22;34352;51.084;3.712;2022-09-30T16:23:41;17.50;1.00
48575;DHT22;34352;51.084;3.712;2022-09-30T16:26:28;17.40;1.00
48575;DHT22;34352;51.084;3.712;2022-09-30T16:32:00;17.40;1.00
48575;DHT22;34352;51.084;3.712;2022-09-30T16:34:27;17.40;1.00
48575;DHT22;34352;51.084;3.712;2022-09-30T16:37:02;17.30;1.00
48575;DHT22;34352;51.084;3.712;2022-09-30T16:39:28;17.20;1.00
48575;DHT22;34352;51.084;3.712;2022-09-30T16:41:54;17.10;1.00
48575;DHT22;34352;51.084;3.712;2022-09-30T16:44:19;16.90;1.00
48575;DHT22;34352;51.084;3.712;2022-09-30T16:46:53;17.00;1.00
48575;DHT22;34352;51.084;3.712;2022-09-30T16:49:19;16.90;1.00
48575;DHT22;34352;51.084;3.712;2022-09-30T16:51:48;17.00;1.00
48575;DHT22;34352;51.084;3.712;2022-09-30T16:54:13;17.00;1.00
48575;DHT22;34352;51.084;3.712;2022-09-30T16:56:39;17.00;1.00
48575;DHT22;34352;51.084;3.712;2022-09-30T16:59:15;16.80;1.00
48575;DHT22;34352;51.084;3.712;2022-09-30T17:01:42;16.80;1.00
48575;DHT22;34352;51.084;3.712;2022-09-30T17:04:08;16.70;1.00
48575;DHT22;34352;51.084;3.712;2022-09-30T17:06:35;16.70;1.00
48575;DHT22;34352;51.084;3.712;2022-09-30T17:09:02;16.60;1.00
48575;DHT22;34352;51.084;3.712;2022-09-30T17:11:33;16.60;1.00
48575;DHT22;34352;51.084;3.712;2022-09-30T17:14:01;16.50;1.00
48575;DHT22;34352;51.084;3.712;2022-09-30T17:16:27;16.50;1.00
48575;DHT22;34352;51.084;3.712;2022-09-30T17:18:53;16.40;1.00
48575;DHT22;34352;51.084;3.712;2022-09-30T17:21:21;16.30;1.00
48575;DHT22;34352;51.084;3.712;2022-09-30T17:23:47;16.10;1.00
48575;DHT22;34352;51.084;3.712;2022-09-30T17:26:13;16.20;1.00
48575;DHT22;34352;51.084;3.712;2022-09-30T17:28:38;16.10;1.00
48575;DHT22;34352;51.084;3.712;2022-09-30T17:31:04;16.10;1.00
48575;DHT22;34352;51.084;3.712;2022-09-30T17:33:35;16.20;1.00
48575;DHT22;34352;51.084;3.712;2022-09-30T17:36:03;16.40;1.00
48575;DHT22;34352;51.084;3.712;2022-09-30T17:38:31;16.10;1.00
48575;DHT22;34352;51.084;3.712;2022-09-30T17:40:57;16.00;1.00
48575;DHT22;34352;51.084;3.712;2022-09-30T17:43:41;16.00;1.00
48575;DHT22;34352;51.084;3.712;2022-09-30T17:46:08;15.90;1.00
48575;DHT22;34352;51.084;3.712;2022-09-30T17:48:33;15.90;1.00
48575;DHT22;34352;51.084;3.712;2022-09-30T17:50:59;15.90;1.00
48575;DHT22;34352;51.084;3.712;2022-09-30T17:53:25;16.00;1.00
48575;DHT22;34352;51.084;3.712;2022-09-30T17:56:20;15.90;1.00
48575;DHT22;34352;51.084;3.712;2022-09-30T17:58:48;15.90;1.00
48575;DHT22;34352;51.084;3.712;2022-09-30T18:01:16;15.90;1.00
48575;DHT22;34352;51.084;3.712;2022-09-30T18:03:42;15.90;1.00
48575;DHT22;34352;51.084;3.712;2022-09-30T18:06:09;15.80;1.00
48575;DHT22;34352;51.084;3.712;2022-09-30T18:08:35;15.80;1.00
48575;DHT22;34352;51.084;3.712;2022-09-30T18:11:00;15.80;1.00
48575;DHT22;34352;51.084;3.712;2022-09-30T18:13:27;15.90;1.00
48575;DHT22;34352;51.084;3.712;2022-09-30T18:15:54;15.70;1.00
48575;DHT22;34352;51.084;3.712;2022-09-30T18:18:20;15.70;1.00
48575;DHT22;34352;51.084;3.712;2022-09-30T18:20:47;15.60;1.00
48575;DHT22;34352;51.084;3.712;2022-09-30T18:23:14;15.60;1.00
48575;DHT22;34352;51.084;3.712;2022-09-30T18:25:43;15.60;1.00
48575;DHT22;34352;51.084;3.712;2022-09-30T18:28:10;15.60;1.00
48575;DHT22;34352;51.084;3.712;2022-09-30T18:30:37;16.20;1.00
48575;DHT22;34352;51.084;3.712;2022-09-30T18:33:03;15.50;1.00
48575;DHT22;34352;51.084;3.712;2022-09-30T18:35:33;15.50;1.00
48575;DHT22;34352;51.084;3.712;2022-09-30T18:37:59;15.60;1.00
48575;DHT22;34352;51.084;3.712;2022-09-30T18:40:27;16.10;1.00
48575;DHT22;34352;51.084;3.712;2022-09-30T18:42:54;15.60;1.00
48575;DHT22;34352;51.084;3.712;2022-09-30T18:45:23;15.50;1.00
48575;DHT22;34352;51.084;3.712;2022-09-30T18:47:53;15.50;1.00
48575;DHT22;34352;51.084;3.712;2022-09-30T18:50:20;15.80;1.00
48575;DHT22;34352;51.084;3.712;2022-09-30T18:52:47;15.80;1.00
48575;DHT22;34352;51.084;3.712;2022-09-30T18:55:13;15.40;1.00
48575;DHT22;34352;51.084;3.712;2022-09-30T18:57:39;15.30;1.00
48575;DHT22;34352;51.084;3.712;2022-09-30T19:00:06;15.30;1.00
48575;DHT22;34352;51.084;3.712;2022-09-30T19:02:36;15.30;1.00
48575;DHT22;34352;51.084;3.712;2022-09-30T19:05:05;15.40;1.00
48575;DHT22;34352;51.084;3.712;2022-09-30T19:07:31;15.30;1.00
48575;DHT22;34352;51.084;3.712;2022-09-30T19:10:00;15.70;1.00
48575;DHT22;34352;51.084;3.712;2022-09-30T19:12:36;15.30;1.00
48575;DHT22;34352;51.084;3.712;2022-09-30T19:15:07;15.30;1.00
48575;DHT22;34352;51.084;3.712;2022-09-30T19:17:34;15.20;1.00
48575;DHT22;34352;51.084;3.712;2022-09-30T19:20:02;15.30;1.00
48575;DHT22;34352;51.084;3.712;2022-09-30T19:22:29;15.30;1.00
48575;DHT22;34352;51.084;3.712;2022-09-30T19:24:55;16.30;1.00
48575;DHT22;34352;51.084;3.712;2022-09-30T19:27:21;15.30;1.00
48575;DHT22;34352;51.084;3.712;2022-09-30T19:29:49;15.30;1.00
48575;DHT22;34352;51.084;3.712;2022-09-30T19:32:16;15.30;1.00
48575;DHT22;34352;51.084;3.712;2022-09-30T19:34:43;15.30;1.00
48575;DHT22;34352;51.084;3.712;2022-09-30T19:37:11;15.30;1.00
48575;DHT22;34352;51.084;3.712;2022-09-30T19:39:36;15.40;1.00
48575;DHT22;34352;51.084;3.712;2022-09-30T19:42:02;15.30;1.00